Falls International Airport International Falls US
ICAO: KINL
IATA: INL
Category: Medium
Scheduled Services: Yes

Elevation: 1185 ft
TransAlt. 18000 ft.

Airport Communications:
ASOS:120
MINNEAPOLIS CNTR:120.9
PRINCETON RDO:123.6
CTAF/UNICOM:122.8

KINL Zoom In..

If you have problems with the map follow the link
https://www.worldairports.se/pages/airport.php?
ICAO=KINL

Runways:

(A) RW 04 length 2999 ft width 75 ft
---- / hdg 39

(B) RW 13 length 7400 ft width 150 ft
ILS 109.10 / hdg 133

(C) RW 22 length 2999 ft width 75 ft
---- / hdg 219

(D) RW 31 length 7400 ft width 150 ft
ILS 111.95 / hdg 313

Location; KINL
Day. 22 / Time. 15.55 Zulu
* Altimeter: 30.30
* Temperature: -08° c. -17.6°f.
* Wind from: 230° Speed 06 kn.
Dewpoint: -11° c.
Visibility: 8 Statute Miles.
Clouds: Overcast 1200 ft.

KINL 221555Z AUTO 23006KT 8SM OVC012 M08/M11 A3030 RMK AO2 SLP284 T10781106


Wind From 230°
Speed 06 kn.

 
 
jpsmedia.com for Web Design worldairports.se 2019   terms of use